sensor_id;sensor_type;location;lat;lon;timestamp;P1;durP1;ratioP1;P2;durP2;ratioP2
19209;SDS011;9738;51.654;14.238;2022-09-03T00:01:16;0.57;;;0.57;;
19209;SDS011;9738;51.654;14.238;2022-09-03T00:03:51;0.83;;;0.60;;
19209;SDS011;9738;51.654;14.238;2022-09-03T00:06:24;0.50;;;0.50;;
19209;SDS011;9738;51.654;14.238;2022-09-03T00:08:57;0.80;;;0.80;;
19209;SDS011;9738;51.654;14.238;2022-09-03T00:14:04;1.27;;;1.17;;
19209;SDS011;9738;51.654;14.238;2022-09-03T00:16:41;0.50;;;0.40;;
19209;SDS011;9738;51.654;14.238;2022-09-03T00:19:10;0.80;;;0.73;;
19209;SDS011;9738;51.654;14.238;2022-09-03T00:21:53;0.60;;;0.60;;
19209;SDS011;9738;51.654;14.238;2022-09-03T00:24:24;1.13;;;0.93;;
19209;SDS011;9738;51.654;14.238;2022-09-03T00:26:56;0.80;;;0.77;;
19209;SDS011;9738;51.654;14.238;2022-09-03T00:29:27;0.50;;;0.50;;
19209;SDS011;9738;51.654;14.238;2022-09-03T00:32:05;1.07;;;0.77;;
19209;SDS011;9738;51.654;14.238;2022-09-03T00:34:37;1.50;;;0.53;;
19209;SDS011;9738;51.654;14.238;2022-09-03T00:37:07;0.47;;;0.47;;
19209;SDS011;9738;51.654;14.238;2022-09-03T00:39:35;0.60;;;0.60;;
19209;SDS011;9738;51.654;14.238;2022-09-03T00:47:56;0.70;;;0.70;;
19209;SDS011;9738;51.654;14.238;2022-09-03T00:53:25;0.60;;;0.60;;
19209;SDS011;9738;51.654;14.238;2022-09-03T00:58:44;0.70;;;0.70;;
19209;SDS011;9738;51.654;14.238;2022-09-03T01:04:37;0.63;;;0.60;;
19209;SDS011;9738;51.654;14.238;2022-09-03T01:07:43;0.60;;;0.60;;
19209;SDS011;9738;51.654;14.238;2022-09-03T01:13:20;0.73;;;0.60;;
19209;SDS011;9738;51.654;14.238;2022-09-03T01:18:59;0.90;;;0.90;;
19209;SDS011;9738;51.654;14.238;2022-09-03T01:30:14;0.80;;;0.80;;
19209;SDS011;9738;51.654;14.238;2022-09-03T01:32:46;1.00;;;0.70;;
19209;SDS011;9738;51.654;14.238;2022-09-03T01:35:25;0.80;;;0.80;;
19209;SDS011;9738;51.654;14.238;2022-09-03T01:38:10;1.00;;;0.70;;
19209;SDS011;9738;51.654;14.238;2022-09-03T01:46:49;0.70;;;0.70;;
19209;SDS011;9738;51.654;14.238;2022-09-03T01:49:28;0.70;;;0.70;;
19209;SDS011;9738;51.654;14.238;2022-09-03T01:52:14;2.17;;;0.80;;
19209;SDS011;9738;51.654;14.238;2022-09-03T01:54:57;0.87;;;0.60;;
19209;SDS011;9738;51.654;14.238;2022-09-03T02:00:42;0.70;;;0.70;;
19209;SDS011;9738;51.654;14.238;2022-09-03T02:03:12;1.13;;;1.07;;
19209;SDS011;9738;51.654;14.238;2022-09-03T02:05:39;0.80;;;0.80;;
19209;SDS011;9738;51.654;14.238;2022-09-03T02:08:08;2.27;;;1.13;;
19209;SDS011;9738;51.654;14.238;2022-09-03T02:10:48;0.87;;;0.87;;
19209;SDS011;9738;51.654;14.238;2022-09-03T02:13:31;0.60;;;0.60;;
19209;SDS011;9738;51.654;14.238;2022-09-03T02:16:02;0.90;;;0.90;;
19209;SDS011;9738;51.654;14.238;2022-09-03T02:18:43;0.77;;;0.70;;
19209;SDS011;9738;51.654;14.238;2022-09-03T02:21:15;0.60;;;0.60;;
19209;SDS011;9738;51.654;14.238;2022-09-03T02:23:44;1.03;;;1.03;;
19209;SDS011;9738;51.654;14.238;2022-09-03T02:26:11;1.13;;;1.03;;
19209;SDS011;9738;51.654;14.238;2022-09-03T02:28:40;1.53;;;0.73;;
19209;SDS011;9738;51.654;14.238;2022-09-03T02:31:06;0.60;;;0.60;;
19209;SDS011;9738;51.654;14.238;2022-09-03T02:33:34;1.27;;;0.80;;
19209;SDS011;9738;51.654;14.238;2022-09-03T02:36:03;0.83;;;0.83;;
19209;SDS011;9738;51.654;14.238;2022-09-03T02:38:31;1.33;;;0.83;;
19209;SDS011;9738;51.654;14.238;2022-09-03T02:40:57;1.03;;;0.93;;
19209;SDS011;9738;51.654;14.238;2022-09-03T02:45:57;1.60;;;0.70;;
19209;SDS011;9738;51.654;14.238;2022-09-03T02:48:26;0.83;;;0.77;;
19209;SDS011;9738;51.654;14.238;2022-09-03T02:50:52;0.50;;;0.50;;
19209;SDS011;9738;51.654;14.238;2022-09-03T02:53:18;0.87;;;0.67;;
19209;SDS011;9738;51.654;14.238;2022-09-03T02:55:45;0.70;;;0.70;;
19209;SDS011;9738;51.654;14.238;2022-09-03T02:58:11;1.20;;;1.10;;
19209;SDS011;9738;51.654;14.238;2022-09-03T03:00:37;0.63;;;0.63;;
19209;SDS011;9738;51.654;14.238;2022-09-03T03:03:04;1.13;;;1.00;;
19209;SDS011;9738;51.654;14.238;2022-09-03T03:05:35;1.23;;;1.00;;
19209;SDS011;9738;51.654;14.238;2022-09-03T03:08:16;1.93;;;1.20;;
19209;SDS011;9738;51.654;14.238;2022-09-03T03:10:46;1.00;;;1.00;;
19209;SDS011;9738;51.654;14.238;2022-09-03T03:13:14;0.80;;;0.80;;
19209;SDS011;9738;51.654;14.238;2022-09-03T03:15:41;0.93;;;0.77;;
19209;SDS011;9738;51.654;14.238;2022-09-03T03:18:07;1.80;;;0.93;;
19209;SDS011;9738;51.654;14.238;2022-09-03T03:20:37;3.27;;;0.90;;
19209;SDS011;9738;51.654;14.238;2022-09-03T03:23:04;0.80;;;0.73;;
19209;SDS011;9738;51.654;14.238;2022-09-03T03:25:33;1.30;;;1.00;;
19209;SDS011;9738;51.654;14.238;2022-09-03T03:28:00;2.80;;;1.33;;
19209;SDS011;9738;51.654;14.238;2022-09-03T03:30:28;1.37;;;0.90;;
19209;SDS011;9738;51.654;14.238;2022-09-03T03:32:54;0.80;;;0.80;;
19209;SDS011;9738;51.654;14.238;2022-09-03T03:35:20;0.97;;;0.97;;
19209;SDS011;9738;51.654;14.238;2022-09-03T03:37:47;1.43;;;1.30;;
19209;SDS011;9738;51.654;14.238;2022-09-03T03:40:12;2.53;;;1.00;;
19209;SDS011;9738;51.654;14.238;2022-09-03T03:42:39;0.67;;;0.67;;
19209;SDS011;9738;51.654;14.238;2022-09-03T03:45:06;1.47;;;1.33;;
19209;SDS011;9738;51.654;14.238;2022-09-03T03:47:34;0.93;;;0.87;;
19209;SDS011;9738;51.654;14.238;2022-09-03T03:50:01;1.33;;;0.90;;
19209;SDS011;9738;51.654;14.238;2022-09-03T03:52:27;1.17;;;1.07;;
19209;SDS011;9738;51.654;14.238;2022-09-03T03:54:53;0.67;;;0.67;;
19209;SDS011;9738;51.654;14.238;2022-09-03T03:57:19;0.93;;;0.93;;
19209;SDS011;9738;51.654;14.238;2022-09-03T03:59:46;1.70;;;1.20;;
19209;SDS011;9738;51.654;14.238;2022-09-03T04:02:12;1.33;;;1.00;;
19209;SDS011;9738;51.654;14.238;2022-09-03T04:04:39;1.43;;;1.10;;
19209;SDS011;9738;51.654;14.238;2022-09-03T04:07:05;0.60;;;0.60;;
19209;SDS011;9738;51.654;14.238;2022-09-03T04:09:32;0.87;;;0.87;;
19209;SDS011;9738;51.654;14.238;2022-09-03T04:11:57;0.70;;;0.70;;
19209;SDS011;9738;51.654;14.238;2022-09-03T04:14:24;0.70;;;0.70;;
19209;SDS011;9738;51.654;14.238;2022-09-03T04:16:51;4.33;;;1.47;;
19209;SDS011;9738;51.654;14.238;2022-09-03T04:19:17;0.60;;;0.60;;
19209;SDS011;9738;51.654;14.238;2022-09-03T04:21:44;1.87;;;1.07;;
19209;SDS011;9738;51.654;14.238;2022-09-03T04:24:10;0.93;;;0.93;;
19209;SDS011;9738;51.654;14.238;2022-09-03T04:26:36;0.90;;;0.90;;
19209;SDS011;9738;51.654;14.238;2022-09-03T04:29:07;1.43;;;0.90;;
19209;SDS011;9738;51.654;14.238;2022-09-03T04:31:35;0.90;;;0.90;;
19209;SDS011;9738;51.654;14.238;2022-09-03T04:34:01;1.30;;;0.93;;
19209;SDS011;9738;51.654;14.238;2022-09-03T04:36:29;1.80;;;1.70;;
19209;SDS011;9738;51.654;14.238;2022-09-03T04:38:57;0.80;;;0.80;;
19209;SDS011;9738;51.654;14.238;2022-09-03T04:41:25;1.77;;;1.03;;
19209;SDS011;9738;51.654;14.238;2022-09-03T04:43:54;0.87;;;0.70;;
19209;SDS011;9738;51.654;14.238;2022-09-03T04:46:22;1.13;;;0.80;;
19209;SDS011;9738;51.654;14.238;2022-09-03T04:48:50;0.60;;;0.60;;
19209;SDS011;9738;51.654;14.238;2022-09-03T04:51:19;0.87;;;0.87;;
19209;SDS011;9738;51.654;14.238;2022-09-03T04:53:52;2.13;;;1.07;;
19209;SDS011;9738;51.654;14.238;2022-09-03T04:56:31;0.67;;;0.67;;
19209;SDS011;9738;51.654;14.238;2022-09-03T04:58:59;0.90;;;0.90;;
19209;SDS011;9738;51.654;14.238;2022-09-03T05:01:29;1.07;;;1.03;;
19209;SDS011;9738;51.654;14.238;2022-09-03T05:03:56;1.00;;;0.93;;
19209;SDS011;9738;51.654;14.238;2022-09-03T05:06:23;0.80;;;0.80;;
19209;SDS011;9738;51.654;14.238;2022-09-03T05:08:50;0.90;;;0.90;;
19209;SDS011;9738;51.654;14.238;2022-09-03T05:11:17;1.03;;;1.03;;
19209;SDS011;9738;51.654;14.238;2022-09-03T05:13:47;0.90;;;0.70;;
19209;SDS011;9738;51.654;14.238;2022-09-03T05:16:15;1.10;;;0.83;;
19209;SDS011;9738;51.654;14.238;2022-09-03T05:18:42;1.30;;;1.20;;
19209;SDS011;9738;51.654;14.238;2022-09-03T05:21:08;1.77;;;1.23;;
19209;SDS011;9738;51.654;14.238;2022-09-03T05:23:37;0.80;;;0.80;;
19209;SDS011;9738;51.654;14.238;2022-09-03T05:26:05;0.73;;;0.73;;
19209;SDS011;9738;51.654;14.238;2022-09-03T05:28:34;1.07;;;1.00;;
19209;SDS011;9738;51.654;14.238;2022-09-03T05:31:03;0.90;;;0.90;;
19209;SDS011;9738;51.654;14.238;2022-09-03T05:33:38;0.80;;;0.73;;
19209;SDS011;9738;51.654;14.238;2022-09-03T05:36:08;1.33;;;1.03;;
19209;SDS011;9738;51.654;14.238;2022-09-03T05:38:35;0.80;;;0.80;;
19209;SDS011;9738;51.654;14.238;2022-09-03T05:41:03;1.40;;;0.80;;
19209;SDS011;9738;51.654;14.238;2022-09-03T05:43:31;3.40;;;0.70;;
19209;SDS011;9738;51.654;14.238;2022-09-03T05:45:59;0.80;;;0.80;;
19209;SDS011;9738;51.654;14.238;2022-09-03T05:48:26;0.80;;;0.80;;
19209;SDS011;9738;51.654;14.238;2022-09-03T05:50:58;0.90;;;0.90;;
19209;SDS011;9738;51.654;14.238;2022-09-03T05:53:28;0.70;;;0.53;;
19209;SDS011;9738;51.654;14.238;2022-09-03T05:55:56;1.20;;;1.03;;
19209;SDS011;9738;51.654;14.238;2022-09-03T05:58:23;0.63;;;0.63;;
19209;SDS011;9738;51.654;14.238;2022-09-03T06:00:50;0.70;;;0.60;;
19209;SDS011;9738;51.654;14.238;2022-09-03T06:03:16;0.70;;;0.70;;
19209;SDS011;9738;51.654;14.238;2022-09-03T06:05:52;1.30;;;0.90;;
19209;SDS011;9738;51.654;14.238;2022-09-03T06:08:20;0.77;;;0.77;;
19209;SDS011;9738;51.654;14.238;2022-09-03T06:10:46;1.53;;;1.40;;
19209;SDS011;9738;51.654;14.238;2022-09-03T06:13:12;1.33;;;1.23;;
19209;SDS011;9738;51.654;14.238;2022-09-03T06:15:39;1.50;;;1.13;;
19209;SDS011;9738;51.654;14.238;2022-09-03T06:18:04;1.63;;;1.20;;
19209;SDS011;9738;51.654;14.238;2022-09-03T06:20:31;1.70;;;1.17;;
19209;SDS011;9738;51.654;14.238;2022-09-03T06:22:57;0.80;;;0.80;;
19209;SDS011;9738;51.654;14.238;2022-09-03T06:25:23;1.13;;;1.03;;
19209;SDS011;9738;51.654;14.238;2022-09-03T06:27:49;0.90;;;0.90;;
19209;SDS011;9738;51.654;14.238;2022-09-03T06:30:16;1.13;;;1.00;;
19209;SDS011;9738;51.654;14.238;2022-09-03T06:32:45;1.10;;;0.90;;
19209;SDS011;9738;51.654;14.238;2022-09-03T06:35:11;0.90;;;0.90;;
19209;SDS011;9738;51.654;14.238;2022-09-03T06:37:38;1.83;;;1.23;;
19209;SDS011;9738;51.654;14.238;2022-09-03T06:40:05;0.90;;;0.90;;
19209;SDS011;9738;51.654;14.238;2022-09-03T06:42:37;0.70;;;0.70;;
19209;SDS011;9738;51.654;14.238;2022-09-03T06:45:04;1.43;;;0.90;;
19209;SDS011;9738;51.654;14.238;2022-09-03T06:47:31;1.07;;;0.90;;
19209;SDS011;9738;51.654;14.238;2022-09-03T06:49:58;2.33;;;0.80;;
19209;SDS011;9738;51.654;14.238;2022-09-03T06:52:25;0.93;;;0.90;;
19209;SDS011;9738;51.654;14.238;2022-09-03T06:54:51;0.83;;;0.83;;
19209;SDS011;9738;51.654;14.238;2022-09-03T06:57:16;0.90;;;0.90;;
19209;SDS011;9738;51.654;14.238;2022-09-03T06:59:43;2.20;;;0.97;;
19209;SDS011;9738;51.654;14.238;2022-09-03T07:02:09;1.07;;;0.77;;
19209;SDS011;9738;51.654;14.238;2022-09-03T07:04:35;2.60;;;1.13;;
19209;SDS011;9738;51.654;14.238;2022-09-03T07:07:01;2.00;;;0.80;;
19209;SDS011;9738;51.654;14.238;2022-09-03T07:09:27;0.70;;;0.70;;
19209;SDS011;9738;51.654;14.238;2022-09-03T07:11:53;1.03;;;0.60;;
19209;SDS011;9738;51.654;14.238;2022-09-03T07:14:20;0.80;;;0.80;;
19209;SDS011;9738;51.654;14.238;2022-09-03T07:16:49;0.70;;;0.70;;
19209;SDS011;9738;51.654;14.238;2022-09-03T07:19:15;1.07;;;0.90;;
19209;SDS011;9738;51.654;14.238;2022-09-03T07:21:42;0.80;;;0.80;;
19209;SDS011;9738;51.654;14.238;2022-09-03T07:24:08;1.40;;;1.10;;
19209;SDS011;9738;51.654;14.238;2022-09-03T07:26:36;0.83;;;0.67;;
19209;SDS011;9738;51.654;14.238;2022-09-03T07:29:04;0.80;;;0.60;;
19209;SDS011;9738;51.654;14.238;2022-09-03T07:31:38;0.83;;;0.83;;
19209;SDS011;9738;51.654;14.238;2022-09-03T07:34:07;0.73;;;0.60;;
19209;SDS011;9738;51.654;14.238;2022-09-03T07:36:35;2.27;;;0.93;;
19209;SDS011;9738;51.654;14.238;2022-09-03T07:39:03;0.73;;;0.73;;
19209;SDS011;9738;51.654;14.238;2022-09-03T07:41:29;1.10;;;0.90;;
19209;SDS011;9738;51.654;14.238;2022-09-03T07:43:57;1.27;;;1.17;;
19209;SDS011;9738;51.654;14.238;2022-09-03T07:46:31;1.23;;;0.90;;
19209;SDS011;9738;51.654;14.238;2022-09-03T07:48:59;1.40;;;1.30;;
19209;SDS011;9738;51.654;14.238;2022-09-03T07:51:27;2.00;;;0.97;;
19209;SDS011;9738;51.654;14.238;2022-09-03T07:53:56;1.20;;;1.10;;
19209;SDS011;9738;51.654;14.238;2022-09-03T07:56:24;0.80;;;0.80;;
19209;SDS011;9738;51.654;14.238;2022-09-03T07:58:51;1.67;;;1.37;;
19209;SDS011;9738;51.654;14.238;2022-09-03T08:01:20;2.10;;;1.10;;
19209;SDS011;9738;51.654;14.238;2022-09-03T08:03:48;1.27;;;1.07;;
19209;SDS011;9738;51.654;14.238;2022-09-03T08:06:16;0.83;;;0.80;;
19209;SDS011;9738;51.654;14.238;2022-09-03T08:08:43;0.90;;;0.90;;
19209;SDS011;9738;51.654;14.238;2022-09-03T08:11:19;1.17;;;1.10;;
19209;SDS011;9738;51.654;14.238;2022-09-03T08:13:48;1.20;;;1.00;;
19209;SDS011;9738;51.654;14.238;2022-09-03T08:16:19;0.77;;;0.77;;
19209;SDS011;9738;51.654;14.238;2022-09-03T08:18:45;1.17;;;1.00;;
19209;SDS011;9738;51.654;14.238;2022-09-03T08:21:13;1.23;;;1.13;;
19209;SDS011;9738;51.654;14.238;2022-09-03T08:23:40;1.37;;;1.20;;
19209;SDS011;9738;51.654;14.238;2022-09-03T08:26:08;1.30;;;1.13;;
19209;SDS011;9738;51.654;14.238;2022-09-03T08:28:36;1.13;;;1.03;;
19209;SDS011;9738;51.654;14.238;2022-09-03T08:31:12;1.33;;;0.90;;
19209;SDS011;9738;51.654;14.238;2022-09-03T08:33:41;1.27;;;1.10;;
19209;SDS011;9738;51.654;14.238;2022-09-03T08:36:10;1.67;;;1.20;;
19209;SDS011;9738;51.654;14.238;2022-09-03T08:38:38;1.60;;;1.10;;
19209;SDS011;9738;51.654;14.238;2022-09-03T08:41:06;1.37;;;1.10;;
19209;SDS011;9738;51.654;14.238;2022-09-03T08:43:46;2.03;;;1.13;;
19209;SDS011;9738;51.654;14.238;2022-09-03T08:46:32;1.07;;;0.87;;
19209;SDS011;9738;51.654;14.238;2022-09-03T08:49:40;1.10;;;0.93;;
19209;SDS011;9738;51.654;14.238;2022-09-03T08:55:17;1.60;;;1.10;;
19209;SDS011;9738;51.654;14.238;2022-09-03T08:57:47;1.60;;;1.00;;
19209;SDS011;9738;51.654;14.238;2022-09-03T09:00:15;1.33;;;1.13;;
19209;SDS011;9738;51.654;14.238;2022-09-03T09:05:51;1.10;;;1.00;;
19209;SDS011;9738;51.654;14.238;2022-09-03T09:08:32;1.73;;;1.30;;
19209;SDS011;9738;51.654;14.238;2022-09-03T09:14:08;1.60;;;1.10;;
19209;SDS011;9738;51.654;14.238;2022-09-03T09:22:56;1.87;;;1.30;;
19209;SDS011;9738;51.654;14.238;2022-09-03T09:25:29;2.47;;;1.23;;
19209;SDS011;9738;51.654;14.238;2022-09-03T09:27:58;1.03;;;1.00;;
19209;SDS011;9738;51.654;14.238;2022-09-03T09:30:27;1.13;;;1.03;;
19209;SDS011;9738;51.654;14.238;2022-09-03T09:32:54;1.30;;;1.20;;
19209;SDS011;9738;51.654;14.238;2022-09-03T09:35:21;3.67;;;1.53;;
19209;SDS011;9738;51.654;14.238;2022-09-03T09:37:49;1.20;;;1.10;;
19209;SDS011;9738;51.654;14.238;2022-09-03T09:40:30;1.13;;;1.00;;
19209;SDS011;9738;51.654;14.238;2022-09-03T09:43:32;2.50;;;1.10;;
19209;SDS011;9738;51.654;14.238;2022-09-03T09:45:51;1.90;;;1.10;;
19209;SDS011;9738;51.654;14.238;2022-09-03T09:48:25;1.40;;;1.00;;
19209;SDS011;9738;51.654;14.238;2022-09-03T09:51:02;1.10;;;1.00;;
19209;SDS011;9738;51.654;14.238;2022-09-03T09:53:33;1.40;;;1.00;;
19209;SDS011;9738;51.654;14.238;2022-09-03T09:55:59;2.33;;;1.13;;
19209;SDS011;9738;51.654;14.238;2022-09-03T09:58:28;2.93;;;0.87;;
19209;SDS011;9738;51.654;14.238;2022-09-03T10:03:23;1.17;;;1.07;;
19209;SDS011;9738;51.654;14.238;2022-09-03T10:06:03;1.20;;;1.00;;
19209;SDS011;9738;51.654;14.238;2022-09-03T10:08:51;0.97;;;0.97;;
19209;SDS011;9738;51.654;14.238;2022-09-03T10:11:19;1.03;;;0.97;;
19209;SDS011;9738;51.654;14.238;2022-09-03T10:13:50;2.17;;;0.80;;
19209;SDS011;9738;51.654;14.238;2022-09-03T10:16:19;1.97;;;1.40;;
19209;SDS011;9738;51.654;14.238;2022-09-03T10:18:56;1.37;;;1.10;;
19209;SDS011;9738;51.654;14.238;2022-09-03T10:25:01;1.47;;;1.03;;
19209;SDS011;9738;51.654;14.238;2022-09-03T10:27:23;1.20;;;1.10;;
19209;SDS011;9738;51.654;14.238;2022-09-03T10:29:50;0.80;;;0.80;;
19209;SDS011;9738;51.654;14.238;2022-09-03T10:38:09;1.43;;;1.27;;
19209;SDS011;9738;51.654;14.238;2022-09-03T10:44:00;1.10;;;1.00;;
19209;SDS011;9738;51.654;14.238;2022-09-03T10:46:43;6.23;;;1.10;;
19209;SDS011;9738;51.654;14.238;2022-09-03T10:52:26;2.57;;;1.00;;
19209;SDS011;9738;51.654;14.238;2022-09-03T11:00:06;1.53;;;1.37;;
19209;SDS011;9738;51.654;14.238;2022-09-03T11:10:50;3.63;;;1.37;;
19209;SDS011;9738;51.654;14.238;2022-09-03T11:13:26;1.97;;;1.27;;
19209;SDS011;9738;51.654;14.238;2022-09-03T11:16:01;1.13;;;1.00;;
19209;SDS011;9738;51.654;14.238;2022-09-03T11:18:47;2.07;;;1.30;;
19209;SDS011;9738;51.654;14.238;2022-09-03T11:21:17;1.67;;;1.10;;
19209;SDS011;9738;51.654;14.238;2022-09-03T11:23:46;1.20;;;1.10;;
19209;SDS011;9738;51.654;14.238;2022-09-03T11:26:18;1.53;;;0.93;;
19209;SDS011;9738;51.654;14.238;2022-09-03T11:28:57;1.07;;;1.03;;
19209;SDS011;9738;51.654;14.238;2022-09-03T11:32:00;1.30;;;1.07;;
19209;SDS011;9738;51.654;14.238;2022-09-03T11:34:32;1.37;;;1.23;;
19209;SDS011;9738;51.654;14.238;2022-09-03T11:39:43;2.67;;;1.47;;
19209;SDS011;9738;51.654;14.238;2022-09-03T11:42:12;2.10;;;1.47;;
19209;SDS011;9738;51.654;14.238;2022-09-03T11:44:51;1.23;;;1.10;;
19209;SDS011;9738;51.654;14.238;2022-09-03T11:47:22;1.50;;;1.30;;
19209;SDS011;9738;51.654;14.238;2022-09-03T11:49:50;3.17;;;1.10;;
19209;SDS011;9738;51.654;14.238;2022-09-03T11:52:25;1.37;;;1.07;;
19209;SDS011;9738;51.654;14.238;2022-09-03T11:54:53;1.10;;;1.00;;
19209;SDS011;9738;51.654;14.238;2022-09-03T11:57:24;2.70;;;1.10;;
19209;SDS011;9738;51.654;14.238;2022-09-03T12:00:14;1.30;;;1.20;;
19209;SDS011;9738;51.654;14.238;2022-09-03T12:02:50;1.80;;;1.13;;
19209;SDS011;9738;51.654;14.238;2022-09-03T12:05:30;1.47;;;1.20;;
19209;SDS011;9738;51.654;14.238;2022-09-03T12:10:48;1.97;;;1.27;;
19209;SDS011;9738;51.654;14.238;2022-09-03T12:13:32;1.00;;;0.90;;
19209;SDS011;9738;51.654;14.238;2022-09-03T12:18:53;1.13;;;1.03;;
19209;SDS011;9738;51.654;14.238;2022-09-03T12:21:22;1.57;;;1.47;;
19209;SDS011;9738;51.654;14.238;2022-09-03T12:23:50;3.10;;;1.50;;
19209;SDS011;9738;51.654;14.238;2022-09-03T12:26:22;1.50;;;1.37;;
19209;SDS011;9738;51.654;14.238;2022-09-03T12:28:51;1.20;;;1.10;;
19209;SDS011;9738;51.654;14.238;2022-09-03T12:31:24;1.43;;;1.30;;
19209;SDS011;9738;51.654;14.238;2022-09-03T12:34:00;1.20;;;1.10;;
19209;SDS011;9738;51.654;14.238;2022-09-03T12:36:51;1.73;;;1.10;;
19209;SDS011;9738;51.654;14.238;2022-09-03T12:39:19;1.43;;;1.10;;
19209;SDS011;9738;51.654;14.238;2022-09-03T12:42:05;1.97;;;1.40;;
19209;SDS011;9738;51.654;14.238;2022-09-03T12:47:03;1.43;;;1.30;;
19209;SDS011;9738;51.654;14.238;2022-09-03T12:49:38;2.07;;;1.37;;
19209;SDS011;9738;51.654;14.238;2022-09-03T12:57:21;1.20;;;1.10;;
19209;SDS011;9738;51.654;14.238;2022-09-03T12:59:53;1.60;;;1.33;;
19209;SDS011;9738;51.654;14.238;2022-09-03T13:02:27;1.93;;;1.43;;
19209;SDS011;9738;51.654;14.238;2022-09-03T13:05:00;1.80;;;1.20;;
19209;SDS011;9738;51.654;14.238;2022-09-03T13:07:28;1.27;;;1.00;;
19209;SDS011;9738;51.654;14.238;2022-09-03T13:10:00;3.20;;;1.43;;
19209;SDS011;9738;51.654;14.238;2022-09-03T13:12:51;1.27;;;1.00;;
19209;SDS011;9738;51.654;14.238;2022-09-03T13:15:17;4.37;;;1.27;;
19209;SDS011;9738;51.654;14.238;2022-09-03T13:26:41;1.17;;;1.07;;
19209;SDS011;9738;51.654;14.238;2022-09-03T13:29:29;2.93;;;1.30;;
19209;SDS011;9738;51.654;14.238;2022-09-03T13:37:48;3.53;;;1.30;;
19209;SDS011;9738;51.654;14.238;2022-09-03T13:40:25;1.40;;;1.27;;
19209;SDS011;9738;51.654;14.238;2022-09-03T13:43:02;1.57;;;1.20;;
19209;SDS011;9738;51.654;14.238;2022-09-03T13:45:45;1.70;;;1.30;;
19209;SDS011;9738;51.654;14.238;2022-09-03T13:48:19;1.43;;;1.33;;
19209;SDS011;9738;51.654;14.238;2022-09-03T13:51:29;1.10;;;1.00;;
19209;SDS011;9738;51.654;14.238;2022-09-03T13:54:13;1.40;;;1.00;;
19209;SDS011;9738;51.654;14.238;2022-09-03T13:56:55;1.73;;;1.30;;
19209;SDS011;9738;51.654;14.238;2022-09-03T14:02:44;1.50;;;1.17;;
19209;SDS011;9738;51.654;14.238;2022-09-03T14:05:16;1.43;;;1.33;;
19209;SDS011;9738;51.654;14.238;2022-09-03T14:13:45;2.20;;;1.67;;
19209;SDS011;9738;51.654;14.238;2022-09-03T14:19:22;1.40;;;1.30;;
19209;SDS011;9738;51.654;14.238;2022-09-03T14:25:31;2.30;;;1.40;;
19209;SDS011;9738;51.654;14.238;2022-09-03T14:27:39;1.90;;;1.50;;
19209;SDS011;9738;51.654;14.238;2022-09-03T14:30:15;2.13;;;1.30;;
19209;SDS011;9738;51.654;14.238;2022-09-03T14:33:09;2.10;;;1.50;;
19209;SDS011;9738;51.654;14.238;2022-09-03T14:43:52;1.47;;;1.30;;
19209;SDS011;9738;51.654;14.238;2022-09-03T14:46:46;1.23;;;1.13;;
19209;SDS011;9738;51.654;14.238;2022-09-03T14:52:40;1.20;;;1.10;;
19209;SDS011;9738;51.654;14.238;2022-09-03T14:55:28;2.03;;;1.30;;
19209;SDS011;9738;51.654;14.238;2022-09-03T14:58:17;3.57;;;1.40;;
19209;SDS011;9738;51.654;14.238;2022-09-03T15:03:32;1.50;;;1.33;;
19209;SDS011;9738;51.654;14.238;2022-09-03T15:06:27;3.37;;;1.30;;
19209;SDS011;9738;51.654;14.238;2022-09-03T15:11:45;2.50;;;1.30;;
19209;SDS011;9738;51.654;14.238;2022-09-03T15:14:18;1.27;;;1.17;;
19209;SDS011;9738;51.654;14.238;2022-09-03T15:16:50;3.03;;;1.40;;
19209;SDS011;9738;51.654;14.238;2022-09-03T15:22:32;1.30;;;1.20;;
19209;SDS011;9738;51.654;14.238;2022-09-03T15:37:01;2.90;;;1.60;;
19209;SDS011;9738;51.654;14.238;2022-09-03T15:39:37;1.37;;;1.27;;
19209;SDS011;9738;51.654;14.238;2022-09-03T15:42:09;1.87;;;1.43;;
19209;SDS011;9738;51.654;14.238;2022-09-03T15:44:42;1.97;;;1.40;;
19209;SDS011;9738;51.654;14.238;2022-09-03T15:50:28;1.70;;;1.60;;
19209;SDS011;9738;51.654;14.238;2022-09-03T15:56:17;2.30;;;1.20;;
19209;SDS011;9738;51.654;14.238;2022-09-03T16:01:55;3.33;;;1.50;;
19209;SDS011;9738;51.654;14.238;2022-09-03T16:04:39;1.77;;;1.30;;
19209;SDS011;9738;51.654;14.238;2022-09-03T16:07:17;1.60;;;1.50;;
19209;SDS011;9738;51.654;14.238;2022-09-03T16:09:57;1.93;;;1.20;;
19209;SDS011;9738;51.654;14.238;2022-09-03T16:15:16;1.37;;;1.17;;
19209;SDS011;9738;51.654;14.238;2022-09-03T16:20:42;1.40;;;1.10;;
19209;SDS011;9738;51.654;14.238;2022-09-03T16:25:54;4.30;;;1.50;;
19209;SDS011;9738;51.654;14.238;2022-09-03T16:28:27;1.90;;;1.50;;
19209;SDS011;9738;51.654;14.238;2022-09-03T16:31:10;2.13;;;1.60;;
19209;SDS011;9738;51.654;14.238;2022-09-03T16:33:48;3.00;;;1.40;;
19209;SDS011;9738;51.654;14.238;2022-09-03T16:36:21;1.83;;;1.50;;
19209;SDS011;9738;51.654;14.238;2022-09-03T16:39:07;3.67;;;1.43;;
19209;SDS011;9738;51.654;14.238;2022-09-03T16:42:03;1.90;;;1.40;;
19209;SDS011;9738;51.654;14.238;2022-09-03T16:44:40;1.70;;;1.60;;
19209;SDS011;9738;51.654;14.238;2022-09-03T16:47:36;1.90;;;1.20;;
19209;SDS011;9738;51.654;14.238;2022-09-03T16:55:21;3.60;;;1.47;;
19209;SDS011;9738;51.654;14.238;2022-09-03T16:58:01;1.50;;;1.33;;
19209;SDS011;9738;51.654;14.238;2022-09-03T17:15:19;1.83;;;1.73;;
19209;SDS011;9738;51.654;14.238;2022-09-03T17:20:41;1.57;;;1.37;;
19209;SDS011;9738;51.654;14.238;2022-09-03T17:23:25;1.77;;;1.40;;
19209;SDS011;9738;51.654;14.238;2022-09-03T17:26:09;1.70;;;1.40;;
19209;SDS011;9738;51.654;14.238;2022-09-03T17:29:19;1.70;;;1.60;;
19209;SDS011;9738;51.654;14.238;2022-09-03T17:34:48;2.17;;;1.50;;
19209;SDS011;9738;51.654;14.238;2022-09-03T17:40:19;2.57;;;1.53;;
19209;SDS011;9738;51.654;14.238;2022-09-03T17:48:54;1.60;;;1.50;;
19209;SDS011;9738;51.654;14.238;2022-09-03T17:51:35;3.23;;;1.67;;
19209;SDS011;9738;51.654;14.238;2022-09-03T17:54:14;2.00;;;1.43;;
19209;SDS011;9738;51.654;14.238;2022-09-03T17:56:48;1.50;;;1.40;;
19209;SDS011;9738;51.654;14.238;2022-09-03T18:02:36;3.73;;;1.37;;
19209;SDS011;9738;51.654;14.238;2022-09-03T18:10:22;1.90;;;1.80;;
19209;SDS011;9738;51.654;14.238;2022-09-03T18:15:59;3.60;;;1.53;;
19209;SDS011;9738;51.654;14.238;2022-09-03T18:18:31;2.63;;;1.80;;
19209;SDS011;9738;51.654;14.238;2022-09-03T18:21:00;2.37;;;1.90;;
19209;SDS011;9738;51.654;14.238;2022-09-03T18:24:03;2.33;;;1.90;;
19209;SDS011;9738;51.654;14.238;2022-09-03T18:27:05;2.77;;;1.60;;
19209;SDS011;9738;51.654;14.238;2022-09-03T18:29:57;4.73;;;2.00;;
19209;SDS011;9738;51.654;14.238;2022-09-03T18:32:47;1.67;;;1.50;;
19209;SDS011;9738;51.654;14.238;2022-09-03T18:35:32;2.27;;;1.80;;
19209;SDS011;9738;51.654;14.238;2022-09-03T18:38:18;2.93;;;1.83;;
19209;SDS011;9738;51.654;14.238;2022-09-03T18:41:31;1.83;;;1.67;;
19209;SDS011;9738;51.654;14.238;2022-09-03T18:44:19;1.30;;;1.20;;
19209;SDS011;9738;51.654;14.238;2022-09-03T18:50:23;2.33;;;1.70;;
19209;SDS011;9738;51.654;14.238;2022-09-03T19:02:43;6.50;;;2.00;;
19209;SDS011;9738;51.654;14.238;2022-09-03T19:12:03;2.70;;;1.77;;
19209;SDS011;9738;51.654;14.238;2022-09-03T19:15:07;1.60;;;1.50;;
19209;SDS011;9738;51.654;14.238;2022-09-03T19:24:38;1.83;;;1.73;;
19209;SDS011;9738;51.654;14.238;2022-09-03T19:27:26;2.53;;;1.63;;
19209;SDS011;9738;51.654;14.238;2022-09-03T19:30:19;7.27;;;1.77;;
19209;SDS011;9738;51.654;14.238;2022-09-03T19:45:53;2.10;;;1.50;;
19209;SDS011;9738;51.654;14.238;2022-09-03T19:54:51;1.47;;;1.33;;
19209;SDS011;9738;51.654;14.238;2022-09-03T19:57:39;3.93;;;1.80;;
19209;SDS011;9738;51.654;14.238;2022-09-03T20:00:24;2.70;;;1.60;;
19209;SDS011;9738;51.654;14.238;2022-09-03T20:03:10;2.67;;;1.50;;